createdAt,value
2017-09-26T00:00:28.682Z,16.48
2017-09-26T00:01:28.603Z,16.38
2017-09-26T00:02:28.538Z,16.52
2017-09-26T00:03:28.444Z,16.41
2017-09-26T00:04:28.360Z,16.45
2017-09-26T00:05:28.284Z,16.62
2017-09-26T00:06:28.205Z,16.71
2017-09-26T00:07:28.120Z,16.74
2017-09-26T00:08:28.039Z,16.65
2017-09-26T00:09:27.964Z,16.37
2017-09-26T00:10:27.880Z,16.50
2017-09-26T00:11:27.795Z,16.42
2017-09-26T00:12:27.716Z,16.30
2017-09-26T00:13:27.646Z,16.40
2017-09-26T00:14:27.559Z,16.37
2017-09-26T00:15:27.478Z,16.42
2017-09-26T00:16:27.402Z,16.41
2017-09-26T00:17:27.316Z,16.42
2017-09-26T00:18:27.427Z,16.41
2017-09-26T00:19:27.157Z,16.37
2017-09-26T00:20:27.082Z,16.49
2017-09-26T00:21:26.997Z,16.62
2017-09-26T00:22:26.916Z,16.44
2017-09-26T00:23:26.840Z,16.37
2017-09-26T00:24:26.753Z,16.27
2017-09-26T00:25:26.673Z,16.40
2017-09-26T00:26:26.599Z,16.48
2017-09-26T00:27:26.518Z,16.56
2017-09-26T00:28:26.437Z,16.40
2017-09-26T00:29:26.352Z,16.25
2017-09-26T00:30:26.287Z,16.26
2017-09-26T00:31:26.189Z,16.16
2017-09-26T00:32:26.109Z,16.11
2017-09-26T00:33:26.027Z,16.11
2017-09-26T00:34:25.959Z,16.03
2017-09-26T00:35:25.866Z,16.04
2017-09-26T00:36:25.791Z,16.12
2017-09-26T00:37:25.741Z,16.30
2017-09-26T00:38:25.635Z,16.00
2017-09-26T00:39:25.542Z,16.00
2017-09-26T00:40:25.461Z,15.96
2017-09-26T00:41:25.385Z,16.04
2017-09-26T00:42:25.308Z,16.00
2017-09-26T00:43:25.224Z,16.03
2017-09-26T00:44:25.141Z,16.11
2017-09-26T00:45:25.064Z,16.06
2017-09-26T00:46:24.977Z,15.89
2017-09-26T00:47:24.897Z,15.85
2017-09-26T00:48:24.820Z,15.74
2017-09-26T00:49:24.733Z,15.84
2017-09-26T00:50:24.655Z,15.82
2017-09-26T00:51:24.575Z,15.75
2017-09-26T00:52:24.498Z,15.72
2017-09-26T00:53:24.438Z,15.76
2017-09-26T00:54:24.329Z,15.81
2017-09-26T00:55:24.282Z,15.94
2017-09-26T00:56:24.183Z,15.99
2017-09-26T00:57:24.086Z,15.86
2017-09-26T00:58:24.002Z,15.85
2017-09-26T00:59:23.940Z,15.99
2017-09-26T01:00:23.845Z,15.96
2017-09-26T01:01:23.766Z,15.88
2017-09-26T01:02:23.721Z,15.85
2017-09-26T01:03:23.636Z,15.88
2017-09-26T01:04:23.520Z,15.99
2017-09-26T01:05:23.440Z,15.94
2017-09-26T01:06:23.369Z,15.99
2017-09-26T01:07:23.284Z,15.97
2017-09-26T01:08:23.210Z,15.97
2017-09-26T01:09:23.154Z,15.88
2017-09-26T01:10:23.057Z,16.01
2017-09-26T01:11:22.954Z,16.01
2017-09-26T01:12:22.877Z,16.12
2017-09-26T01:13:22.811Z,15.99
2017-09-26T01:14:22.715Z,15.85
2017-09-26T01:15:22.642Z,15.99
2017-09-26T01:16:22.552Z,16.00
2017-09-26T01:17:22.484Z,15.76
2017-09-26T01:18:22.390Z,15.79
2017-09-26T01:19:22.324Z,15.93
2017-09-26T01:20:22.256Z,15.74
2017-09-26T01:21:22.151Z,15.70
2017-09-26T01:22:22.068Z,15.84
2017-09-26T01:23:21.994Z,15.78
2017-09-26T01:24:21.912Z,15.72
2017-09-26T01:25:21.823Z,15.79
2017-09-26T01:26:21.751Z,15.78
2017-09-26T01:27:21.691Z,15.64
2017-09-26T01:28:21.584Z,15.79
2017-09-26T01:29:21.502Z,15.92
2017-09-26T01:30:21.458Z,15.84
2017-09-26T01:31:21.348Z,15.89
2017-09-26T01:32:21.261Z,15.86
2017-09-26T01:33:21.183Z,15.60
2017-09-26T01:34:21.104Z,15.59
2017-09-26T01:35:21.020Z,15.64
2017-09-26T01:36:20.944Z,15.67
2017-09-26T01:37:20.857Z,15.66
2017-09-26T01:38:20.781Z,15.63
2017-09-26T01:39:20.726Z,15.59
2017-09-26T01:40:20.615Z,15.54
2017-09-26T01:41:20.540Z,15.59
2017-09-26T01:42:20.454Z,15.63
2017-09-26T01:43:20.373Z,15.66
2017-09-26T01:44:20.289Z,15.59
2017-09-26T01:45:20.214Z,15.67
2017-09-26T01:46:20.129Z,15.57
2017-09-26T01:47:20.050Z,15.51
2017-09-26T01:48:19.969Z,15.56
2017-09-26T01:49:19.888Z,15.68
2017-09-26T01:50:19.807Z,15.82
2017-09-26T01:51:19.728Z,15.81
2017-09-26T01:52:19.645Z,15.72
2017-09-26T01:53:19.564Z,15.59
2017-09-26T01:54:19.485Z,15.56
2017-09-26T01:55:19.400Z,15.51
2017-09-26T01:56:19.322Z,15.48
2017-09-26T01:57:19.239Z,15.42
2017-09-26T01:58:19.157Z,15.38
2017-09-26T01:59:19.081Z,15.38
2017-09-26T02:00:19.005Z,15.51
2017-09-26T02:01:18.918Z,15.60
2017-09-26T02:02:18.840Z,15.60
2017-09-26T02:03:18.762Z,15.49
2017-09-26T02:04:18.684Z,15.45
2017-09-26T02:05:18.598Z,15.31
2017-09-26T02:06:18.514Z,15.39
2017-09-26T02:07:18.432Z,15.26
2017-09-26T02:08:18.348Z,15.30
2017-09-26T02:09:18.297Z,15.38
2017-09-26T02:10:18.187Z,15.26
2017-09-26T02:11:18.105Z,15.42
2017-09-26T02:12:18.146Z,15.12
2017-09-26T02:13:17.948Z,15.19
2017-09-26T02:14:17.863Z,15.26
2017-09-26T02:15:17.785Z,15.24
2017-09-26T02:16:17.698Z,15.12
2017-09-26T02:17:17.620Z,15.17
2017-09-26T02:18:17.543Z,15.26
2017-09-26T02:19:17.456Z,15.24
2017-09-26T02:20:17.379Z,15.12
2017-09-26T02:21:17.295Z,15.24
2017-09-26T02:22:17.225Z,15.09
2017-09-26T02:23:17.133Z,15.13
2017-09-26T02:24:17.070Z,15.26
2017-09-26T02:25:16.969Z,15.23
2017-09-26T02:26:16.888Z,15.28
2017-09-26T02:27:16.807Z,15.12
2017-09-26T02:28:16.725Z,15.26
2017-09-26T02:29:16.642Z,15.19
2017-09-26T02:30:16.585Z,15.08
2017-09-26T02:31:16.514Z,15.03
2017-09-26T02:32:16.435Z,15.08
2017-09-26T02:33:16.314Z,15.06
2017-09-26T02:34:16.237Z,15.02
2017-09-26T02:35:16.157Z,15.08
2017-09-26T02:36:16.073Z,15.20
2017-09-26T02:37:16.000Z,15.30
2017-09-26T02:38:15.914Z,15.30
2017-09-26T02:39:15.847Z,15.15
2017-09-26T02:40:15.752Z,15.05
2017-09-26T02:41:15.680Z,15.03
2017-09-26T02:42:15.596Z,15.23
2017-09-26T02:43:15.511Z,15.20
2017-09-26T02:44:15.430Z,15.13
2017-09-26T02:45:15.344Z,15.13
2017-09-26T02:46:15.267Z,15.03
2017-09-26T02:47:15.184Z,14.94
2017-09-26T02:48:15.095Z,15.08
2017-09-26T02:49:15.030Z,15.15
2017-09-26T02:50:14.935Z,15.15
2017-09-26T02:51:14.865Z,15.12
2017-09-26T02:52:14.773Z,14.98
2017-09-26T02:53:14.698Z,14.83
2017-09-26T02:54:14.608Z,14.80
2017-09-26T02:55:14.531Z,14.83
2017-09-26T02:56:14.443Z,14.93
2017-09-26T02:57:14.371Z,14.99
2017-09-26T02:58:14.281Z,15.06
2017-09-26T02:59:14.204Z,15.06
2017-09-26T03:00:14.121Z,15.06
2017-09-26T03:01:14.041Z,15.02
2017-09-26T03:02:13.957Z,14.93
2017-09-26T03:03:13.887Z,14.95
2017-09-26T03:04:13.793Z,14.98
2017-09-26T03:05:13.712Z,14.95
2017-09-26T03:06:13.638Z,15.01
2017-09-26T03:07:13.547Z,14.81
2017-09-26T03:08:13.474Z,14.94
2017-09-26T03:09:13.385Z,15.02
2017-09-26T03:10:13.306Z,14.95
2017-09-26T03:11:13.223Z,15.09
2017-09-26T03:12:13.147Z,15.02
2017-09-26T03:13:13.057Z,15.02
2017-09-26T03:14:12.979Z,14.94
2017-09-26T03:15:12.912Z,14.99
2017-09-26T03:16:12.815Z,15.03
2017-09-26T03:17:12.734Z,14.95
2017-09-26T03:18:12.653Z,14.86
2017-09-26T03:19:12.576Z,14.83
2017-09-26T03:20:12.490Z,14.91
2017-09-26T03:21:12.406Z,15.02
2017-09-26T03:22:12.326Z,14.98
2017-09-26T03:23:12.251Z,15.05
2017-09-26T03:24:12.163Z,14.88
2017-09-26T03:25:12.087Z,14.99
2017-09-26T03:26:12.002Z,14.95
2017-09-26T03:27:11.919Z,14.91
2017-09-26T03:28:11.836Z,14.93
2017-09-26T03:29:11.760Z,14.93
2017-09-26T03:30:11.685Z,14.94
2017-09-26T03:31:11.597Z,14.94
2017-09-26T03:32:11.518Z,14.93
2017-09-26T03:33:11.431Z,15.01
2017-09-26T03:34:11.346Z,14.72
2017-09-26T03:35:11.268Z,14.67
2017-09-26T03:36:11.189Z,14.74
2017-09-26T03:37:11.109Z,14.74
2017-09-26T03:38:11.024Z,14.81
2017-09-26T03:39:10.940Z,14.62
2017-09-26T03:40:10.859Z,14.64
2017-09-26T03:41:10.777Z,14.64
2017-09-26T03:42:10.715Z,14.67
2017-09-26T03:43:10.619Z,14.68
2017-09-26T03:44:10.535Z,14.75
2017-09-26T03:45:10.458Z,14.74
2017-09-26T03:46:10.379Z,14.83
2017-09-26T03:47:10.293Z,14.80
2017-09-26T03:48:10.220Z,14.62
2017-09-26T03:49:10.132Z,14.61
2017-09-26T03:50:10.049Z,14.49
2017-09-26T03:51:09.968Z,14.50
2017-09-26T03:52:09.906Z,14.64
2017-09-26T03:53:09.808Z,14.75
2017-09-26T03:54:09.714Z,14.69
2017-09-26T03:55:09.640Z,14.61
2017-09-26T03:56:09.556Z,14.56
2017-09-26T03:57:09.474Z,14.52
2017-09-26T03:58:09.394Z,14.53
2017-09-26T03:59:09.312Z,14.69
2017-09-26T04:00:09.232Z,14.67
2017-09-26T04:01:09.145Z,14.78
2017-09-26T04:02:09.063Z,14.69
2017-09-26T04:03:09.001Z,14.53
2017-09-26T04:04:08.898Z,14.46
2017-09-26T04:05:08.819Z,14.46
2017-09-26T04:06:08.737Z,14.50
2017-09-26T04:07:08.656Z,14.34
2017-09-26T04:08:08.593Z,14.37
2017-09-26T04:09:08.523Z,14.54
2017-09-26T04:10:08.410Z,14.50
2017-09-26T04:11:08.331Z,14.56
2017-09-26T04:12:08.255Z,14.54
2017-09-26T04:13:08.160Z,14.42
2017-09-26T04:14:08.084Z,14.52
2017-09-26T04:15:07.999Z,14.49
2017-09-26T04:16:07.920Z,14.50
2017-09-26T04:17:07.834Z,14.35
2017-09-26T04:18:07.757Z,14.34
2017-09-26T04:19:07.672Z,14.38
2017-09-26T04:20:07.592Z,14.53
2017-09-26T04:21:07.509Z,14.52
2017-09-26T04:22:07.428Z,14.53
2017-09-26T04:23:07.347Z,14.50
2017-09-26T04:24:07.261Z,14.49
2017-09-26T04:25:07.181Z,14.61
2017-09-26T04:26:07.099Z,14.47
2017-09-26T04:27:07.018Z,14.38
2017-09-26T04:28:06.961Z,14.35
2017-09-26T04:29:06.893Z,14.19
2017-09-26T04:30:06.771Z,14.24
2017-09-26T04:31:06.688Z,14.29
2017-09-26T04:32:06.608Z,14.16
2017-09-26T04:33:06.525Z,14.27
2017-09-26T04:34:06.442Z,14.31
2017-09-26T04:35:06.361Z,14.28
2017-09-26T04:36:06.278Z,14.31
2017-09-26T04:37:06.196Z,14.31
2017-09-26T04:38:06.119Z,14.25
2017-09-26T04:39:06.030Z,14.21
2017-09-26T04:40:05.949Z,14.28
2017-09-26T04:41:05.896Z,14.24
2017-09-26T04:42:05.795Z,14.19
2017-09-26T04:43:05.710Z,14.21
2017-09-26T04:44:05.630Z,14.27
2017-09-26T04:45:05.543Z,14.25
2017-09-26T04:46:05.468Z,14.28
2017-09-26T04:47:05.378Z,14.17
2017-09-26T04:48:05.303Z,14.12
2017-09-26T04:49:05.212Z,14.17
2017-09-26T04:50:05.182Z,14.09
2017-09-26T04:51:05.051Z,14.01
2017-09-26T04:52:04.967Z,14.13
2017-09-26T04:53:04.887Z,14.10
2017-09-26T04:54:04.801Z,14.09
2017-09-26T04:55:04.721Z,14.06
2017-09-26T04:56:04.645Z,13.95
2017-09-26T04:57:04.569Z,13.92
2017-09-26T04:58:04.478Z,14.06
2017-09-26T04:59:04.400Z,14.10
2017-09-26T05:00:04.311Z,13.99
2017-09-26T05:01:04.222Z,14.02
2017-09-26T05:02:04.154Z,14.21
2017-09-26T05:03:04.063Z,14.04
2017-09-26T05:04:04.001Z,14.21
2017-09-26T05:05:03.903Z,14.02
2017-09-26T05:06:03.826Z,14.14
2017-09-26T05:07:03.740Z,14.19
2017-09-26T05:08:03.656Z,14.10
2017-09-26T05:09:03.580Z,14.02
2017-09-26T05:10:03.509Z,14.16
2017-09-26T05:11:03.406Z,14.06
2017-09-26T05:12:03.330Z,14.10
2017-09-26T05:13:03.243Z,14.19
2017-09-26T05:14:03.163Z,14.16
2017-09-26T05:15:03.087Z,14.21
2017-09-26T05:16:02.996Z,14.14
2017-09-26T05:17:02.920Z,14.16
2017-09-26T05:18:02.833Z,14.17
2017-09-26T05:19:02.756Z,14.10
2017-09-26T05:20:02.670Z,14.21
2017-09-26T05:21:02.582Z,14.21
2017-09-26T05:22:02.510Z,14.12
2017-09-26T05:23:02.423Z,14.17
2017-09-26T05:24:02.339Z,14.19
2017-09-26T05:25:02.262Z,14.17
2017-09-26T05:26:02.181Z,14.24
2017-09-26T05:27:02.092Z,14.16
2017-09-26T05:28:02.011Z,14.16
2017-09-26T05:29:01.947Z,14.01
2017-09-26T05:30:01.851Z,13.99
2017-09-26T05:31:01.767Z,13.99
2017-09-26T05:32:01.685Z,14.04
2017-09-26T05:33:01.601Z,13.96
2017-09-26T05:34:01.531Z,13.96
2017-09-26T05:35:01.445Z,14.01
2017-09-26T05:36:01.360Z,13.99
2017-09-26T05:37:01.298Z,13.92
2017-09-26T05:38:01.191Z,14.01
2017-09-26T05:39:01.110Z,13.96
2017-09-26T05:40:01.031Z,13.95
2017-09-26T05:41:00.970Z,13.89
2017-09-26T05:42:00.869Z,13.92
2017-09-26T05:43:00.778Z,13.91
2017-09-26T05:44:00.699Z,13.87
2017-09-26T05:45:00.630Z,13.84
2017-09-26T05:46:00.536Z,13.88
2017-09-26T05:47:00.456Z,13.89
2017-09-26T05:48:00.382Z,13.87
2017-09-26T05:49:00.288Z,13.88
2017-09-26T05:50:00.234Z,13.77
2017-09-26T05:51:00.130Z,14.02
2017-09-26T05:52:00.043Z,14.32
2017-09-26T05:52:59.961Z,14.37
2017-09-26T05:53:59.887Z,14.39
2017-09-26T05:54:59.798Z,14.28
2017-09-26T05:55:59.712Z,14.19
2017-09-26T05:56:59.631Z,14.32
2017-09-26T05:57:59.564Z,14.24
2017-09-26T05:58:59.472Z,14.25
2017-09-26T05:59:59.386Z,14.09
2017-09-26T06:00:59.317Z,14.02
2017-09-26T06:01:59.222Z,13.79
2017-09-26T06:02:59.150Z,13.63
2017-09-26T06:03:59.054Z,13.59
2017-09-26T06:04:58.976Z,13.71
2017-09-26T06:05:58.895Z,13.84
2017-09-26T06:06:58.810Z,13.95
2017-09-26T06:07:58.728Z,13.87
2017-09-26T06:08:58.645Z,13.95
2017-09-26T06:09:58.563Z,14.06
2017-09-26T06:10:58.495Z,14.10
2017-09-26T06:11:58.403Z,14.07
2017-09-26T06:12:58.318Z,14.06
2017-09-26T06:13:58.237Z,14.10
2017-09-26T06:14:58.156Z,14.14
2017-09-26T06:15:58.075Z,14.04
2017-09-26T06:16:57.991Z,13.92
2017-09-26T06:17:57.912Z,13.77
2017-09-26T06:18:57.840Z,14.04
2017-09-26T06:19:57.743Z,14.14
2017-09-26T06:20:57.663Z,14.14
2017-09-26T06:21:57.587Z,14.01
2017-09-26T06:22:57.505Z,14.06
2017-09-26T06:23:57.418Z,14.07
2017-09-26T06:24:57.332Z,14.19
2017-09-26T06:25:57.254Z,14.27
2017-09-26T06:26:57.175Z,14.27
2017-09-26T06:27:57.102Z,14.04
2017-09-26T06:28:57.033Z,14.16
2017-09-26T06:29:56.923Z,14.04
2017-09-26T06:30:56.847Z,13.80
2017-09-26T06:31:56.759Z,13.91
2017-09-26T06:32:56.679Z,14.09
2017-09-26T06:33:56.619Z,14.17
2017-09-26T06:34:56.530Z,14.13
2017-09-26T06:35:56.434Z,14.17
2017-09-26T06:36:56.346Z,14.29
2017-09-26T06:37:56.267Z,14.27
2017-09-26T06:38:56.183Z,14.25
2017-09-26T06:39:56.102Z,14.38
2017-09-26T06:40:56.021Z,14.35
2017-09-26T06:41:55.948Z,14.37
2017-09-26T06:42:55.860Z,14.34
2017-09-26T06:43:55.795Z,14.50
2017-09-26T06:44:55.692Z,14.50
2017-09-26T06:45:55.613Z,14.56
2017-09-26T06:46:55.533Z,14.61
2017-09-26T06:47:55.453Z,14.50
2017-09-26T06:48:55.365Z,14.50
2017-09-26T06:49:55.303Z,14.50
2017-09-26T06:50:55.200Z,14.47
2017-09-26T06:51:55.123Z,14.47
2017-09-26T06:52:55.037Z,14.56
2017-09-26T06:53:54.958Z,14.43
2017-09-26T06:54:54.883Z,14.44
2017-09-26T06:55:54.794Z,14.47
2017-09-26T06:56:54.727Z,14.61
2017-09-26T06:57:54.631Z,14.71
2017-09-26T06:58:54.548Z,14.74
2017-09-26T06:59:54.467Z,14.72
2017-09-26T07:00:54.387Z,14.78
2017-09-26T07:01:54.302Z,14.94
2017-09-26T07:02:54.225Z,14.87
2017-09-26T07:03:54.147Z,14.88
2017-09-26T07:04:54.060Z,14.93
2017-09-26T07:05:53.979Z,14.80
2017-09-26T07:06:53.896Z,14.69
2017-09-26T07:07:53.812Z,14.75
2017-09-26T07:08:53.734Z,14.75
2017-09-26T07:09:53.690Z,14.60
2017-09-26T07:10:53.586Z,14.57
2017-09-26T07:11:53.487Z,14.74
2017-09-26T07:12:53.407Z,14.62
2017-09-26T07:13:53.332Z,14.60
2017-09-26T07:14:53.246Z,14.37
2017-09-26T07:15:53.170Z,14.50
2017-09-26T07:16:53.083Z,14.64
2017-09-26T07:17:53.003Z,14.83
2017-09-26T07:18:52.921Z,14.68
2017-09-26T07:19:52.847Z,14.84
2017-09-26T07:20:52.790Z,14.80
2017-09-26T07:21:52.670Z,14.83
2017-09-26T07:22:52.592Z,14.67
2017-09-26T07:23:52.512Z,14.81
2017-09-26T07:24:52.430Z,14.88
2017-09-26T07:25:52.349Z,14.81
2017-09-26T07:26:52.270Z,15.05
2017-09-26T07:27:52.183Z,15.19
2017-09-26T07:28:52.103Z,15.15
2017-09-26T07:29:52.023Z,15.26
2017-09-26T07:30:51.941Z,15.27
2017-09-26T07:31:51.856Z,15.31
2017-09-26T07:32:51.773Z,15.09
2017-09-26T07:33:51.697Z,15.20
2017-09-26T07:34:51.612Z,15.12
2017-09-26T07:35:51.551Z,15.15
2017-09-26T07:36:51.449Z,15.27
2017-09-26T07:37:51.382Z,15.23
2017-09-26T07:38:51.293Z,15.31
2017-09-26T07:39:51.205Z,15.38
2017-09-26T07:40:51.130Z,15.56
2017-09-26T07:41:51.077Z,15.49
2017-09-26T07:42:50.962Z,15.52
2017-09-26T07:43:50.884Z,15.38
2017-09-26T07:44:50.808Z,15.43
2017-09-26T07:45:50.721Z,15.49
2017-09-26T07:46:50.639Z,15.56
2017-09-26T07:47:50.561Z,15.61
2017-09-26T07:48:50.486Z,15.43
2017-09-26T07:49:50.404Z,15.01
2017-09-26T07:50:50.328Z,15.31
2017-09-26T07:51:50.239Z,14.99
2017-09-26T07:52:50.168Z,15.11
2017-09-26T07:53:50.082Z,15.36
2017-09-26T07:54:50.004Z,15.45
2017-09-26T07:55:49.927Z,15.52
2017-09-26T07:56:49.835Z,15.68
2017-09-26T07:57:49.770Z,15.84
2017-09-26T07:58:49.682Z,15.84
2017-09-26T07:59:49.593Z,16.01
2017-09-26T08:00:49.512Z,16.09
2017-09-26T08:01:49.440Z,16.16
2017-09-26T08:02:49.352Z,16.00
2017-09-26T08:03:49.303Z,15.94
2017-09-26T08:04:49.196Z,15.81
2017-09-26T08:05:49.120Z,15.81
2017-09-26T08:06:49.034Z,16.04
2017-09-26T08:07:48.951Z,16.37
2017-09-26T08:08:48.870Z,16.74
2017-09-26T08:09:48.791Z,17.08
2017-09-26T08:10:48.716Z,16.98
2017-09-26T08:11:48.635Z,16.75
2017-09-26T08:12:48.555Z,16.86
2017-09-26T08:13:48.476Z,16.52
2017-09-26T08:14:48.397Z,16.73
2017-09-26T08:15:48.324Z,17.26
2017-09-26T08:16:48.239Z,17.74
2017-09-26T08:17:48.164Z,18.17
2017-09-26T08:18:48.078Z,18.34
2017-09-26T08:19:48.003Z,18.52
2017-09-26T08:20:47.929Z,18.80
2017-09-26T08:21:47.847Z,18.87
2017-09-26T08:22:47.774Z,18.97
2017-09-26T08:23:47.699Z,18.99
2017-09-26T08:24:47.620Z,19.02
2017-09-26T08:25:47.543Z,18.77
2017-09-26T08:26:47.458Z,18.67
2017-09-26T08:27:47.377Z,18.43
2017-09-26T08:28:47.305Z,17.95
2017-09-26T08:29:47.225Z,17.87
2017-09-26T08:30:47.151Z,17.89
2017-09-26T08:31:47.070Z,17.92
2017-09-26T08:32:46.990Z,18.04
2017-09-26T08:33:46.908Z,18.10
2017-09-26T08:34:46.834Z,17.95
2017-09-26T08:35:46.760Z,17.91
2017-09-26T08:36:46.680Z,17.81
2017-09-26T08:37:46.599Z,17.95
2017-09-26T08:38:46.517Z,18.09
2017-09-26T08:39:46.440Z,18.31
2017-09-26T08:40:46.363Z,18.43
2017-09-26T08:41:46.312Z,18.52
2017-09-26T08:42:46.211Z,18.37
2017-09-26T08:43:46.127Z,18.39
2017-09-26T08:44:46.053Z,18.40
2017-09-26T08:45:45.994Z,18.68
2017-09-26T08:46:45.896Z,18.76
2017-09-26T08:47:45.817Z,18.79
2017-09-26T08:48:45.740Z,18.80
2017-09-26T08:49:45.660Z,18.80
2017-09-26T08:50:45.620Z,18.64
2017-09-26T08:51:45.516Z,18.79
2017-09-26T08:52:45.430Z,18.62
2017-09-26T08:53:45.352Z,18.72
2017-09-26T08:54:45.282Z,19.11
2017-09-26T08:55:45.195Z,19.28
2017-09-26T08:56:45.117Z,19.72
2017-09-26T08:57:45.096Z,19.93
2017-09-26T08:58:45.019Z,20.28
2017-09-26T08:59:44.901Z,20.46
2017-09-26T09:00:44.817Z,20.54
2017-09-26T09:01:44.737Z,20.65
2017-09-26T09:02:44.662Z,21.06
2017-09-26T09:03:44.591Z,21.17
2017-09-26T09:04:44.511Z,21.32
2017-09-26T09:05:44.435Z,21.48
2017-09-26T09:06:44.359Z,21.59
2017-09-26T09:07:44.286Z,21.81
2017-09-26T09:08:44.208Z,21.76
2017-09-26T09:09:44.136Z,21.53
2017-09-26T09:10:44.062Z,21.29
2017-09-26T09:11:43.986Z,21.04
2017-09-26T09:12:43.912Z,20.93
2017-09-26T09:13:43.839Z,20.83
2017-09-26T09:14:43.769Z,20.71
2017-09-26T09:15:43.686Z,20.59
2017-09-26T09:16:43.608Z,20.42
2017-09-26T09:17:43.533Z,20.41
2017-09-26T09:18:43.459Z,20.46
2017-09-26T09:19:43.391Z,20.43
2017-09-26T09:20:43.313Z,20.27
2017-09-26T09:21:43.239Z,20.18
2017-09-26T09:22:43.159Z,20.13
2017-09-26T09:23:43.082Z,20.08
2017-09-26T09:24:43.010Z,20.33
2017-09-26T09:25:42.942Z,20.72
2017-09-26T09:26:42.862Z,20.86
2017-09-26T09:27:42.786Z,21.02
2017-09-26T09:28:42.706Z,21.24
2017-09-26T09:29:42.649Z,21.35
2017-09-26T09:30:42.559Z,21.60
2017-09-26T09:31:42.487Z,21.79
2017-09-26T09:32:42.417Z,21.92
2017-09-26T09:33:42.336Z,22.10
2017-09-26T09:34:42.265Z,22.06
2017-09-26T09:35:42.195Z,22.10
2017-09-26T09:36:42.118Z,22.10
2017-09-26T09:37:42.044Z,22.10
2017-09-26T09:38:41.970Z,22.28
2017-09-26T09:39:41.896Z,22.35
2017-09-26T09:40:41.828Z,22.49
2017-09-26T09:41:41.754Z,22.60
2017-09-26T09:42:41.681Z,22.31
2017-09-26T09:43:41.609Z,22.07
2017-09-26T09:44:41.535Z,22.52
2017-09-26T09:45:41.464Z,22.62
2017-09-26T09:46:41.399Z,22.44
2017-09-26T09:47:41.321Z,22.02
2017-09-26T09:48:41.250Z,22.34
2017-09-26T09:49:41.181Z,22.69
2017-09-26T09:50:41.108Z,23.01
2017-09-26T09:51:41.066Z,23.23
2017-09-26T09:52:40.964Z,23.40
2017-09-26T09:53:40.898Z,23.47
2017-09-26T09:54:40.822Z,23.61
2017-09-26T09:55:40.757Z,23.08
2017-09-26T09:56:40.689Z,23.29
2017-09-26T09:57:40.627Z,23.55
2017-09-26T09:58:40.546Z,23.38
2017-09-26T09:59:40.471Z,23.07
2017-09-26T10:00:40.405Z,22.87
2017-09-26T10:01:40.325Z,23.14
2017-09-26T10:02:40.258Z,23.71
2017-09-26T10:03:40.185Z,23.89
2017-09-26T10:04:40.120Z,23.87
2017-09-26T10:05:40.041Z,23.92
2017-09-26T10:06:39.975Z,24.07
2017-09-26T10:07:39.932Z,24.04
2017-09-26T10:08:39.842Z,24.27
2017-09-26T10:09:39.768Z,24.19
2017-09-26T10:10:39.702Z,24.27
2017-09-26T10:11:39.640Z,24.14
2017-09-26T10:12:39.564Z,24.41
2017-09-26T10:13:39.489Z,24.41
2017-09-26T10:14:39.418Z,23.95
2017-09-26T10:15:39.356Z,23.98
2017-09-26T10:16:39.278Z,24.41
2017-09-26T10:17:39.202Z,24.52
2017-09-26T10:18:39.138Z,24.91
2017-09-26T10:19:39.064Z,24.91
2017-09-26T10:20:39.004Z,25.02
2017-09-26T10:21:38.939Z,25.13
2017-09-26T10:22:38.862Z,25.27
2017-09-26T10:23:38.799Z,24.97
2017-09-26T10:24:38.728Z,25.37
2017-09-26T10:25:38.659Z,25.35
2017-09-26T10:26:38.591Z,25.24
2017-09-26T10:27:38.522Z,25.30
2017-09-26T10:28:38.455Z,25.37
2017-09-26T10:29:38.384Z,25.07
2017-09-26T10:30:38.321Z,24.97
2017-09-26T10:31:38.254Z,24.54
2017-09-26T10:32:38.184Z,24.54
2017-09-26T10:33:38.110Z,24.45
2017-09-26T10:34:38.046Z,24.19
2017-09-26T10:35:37.986Z,24.35
2017-09-26T10:36:37.908Z,24.57
2017-09-26T10:37:37.845Z,24.57
2017-09-26T10:38:37.769Z,24.63
2017-09-26T10:39:37.701Z,24.59
2017-09-26T10:40:37.629Z,24.45
2017-09-26T10:41:37.557Z,24.71
2017-09-26T10:42:37.486Z,25.00
2017-09-26T10:43:37.420Z,25.15
2017-09-26T10:44:37.349Z,25.13
2017-09-26T10:45:37.288Z,24.92
2017-09-26T10:46:37.206Z,25.01
2017-09-26T10:47:37.138Z,24.79
2017-09-26T10:48:37.074Z,24.50
2017-09-26T10:49:37.003Z,24.61
2017-09-26T10:50:36.933Z,24.56
2017-09-26T10:51:36.864Z,24.59
2017-09-26T10:52:36.787Z,24.38
2017-09-26T10:53:36.722Z,24.34
2017-09-26T10:54:36.666Z,24.19
2017-09-26T10:55:36.585Z,24.54
2017-09-26T10:56:36.508Z,24.57
2017-09-26T10:57:36.437Z,24.94
2017-09-26T10:58:36.378Z,24.98
2017-09-26T10:59:36.300Z,24.97
2017-09-26T11:00:36.270Z,25.16
2017-09-26T11:01:36.161Z,25.07
2017-09-26T11:02:36.097Z,25.13
2017-09-26T11:03:36.028Z,25.28
2017-09-26T11:04:35.953Z,25.52
2017-09-26T11:05:35.882Z,25.53
2017-09-26T11:06:35.830Z,25.59
2017-09-26T11:07:35.750Z,25.69
2017-09-26T11:08:35.675Z,25.84
2017-09-26T11:09:35.604Z,26.02
2017-09-26T11:10:35.538Z,25.90
2017-09-26T11:11:35.477Z,26.04
2017-09-26T11:12:35.397Z,26.22
2017-09-26T11:13:35.346Z,26.04
2017-09-26T11:14:35.266Z,25.75
2017-09-26T11:15:35.195Z,25.83
2017-09-26T11:16:35.126Z,26.05
2017-09-26T11:17:35.053Z,25.89
2017-09-26T11:18:34.991Z,25.94
2017-09-26T11:19:34.917Z,25.84
2017-09-26T11:20:34.851Z,26.01
2017-09-26T11:21:34.780Z,26.01
2017-09-26T11:22:34.720Z,25.94
2017-09-26T11:23:34.674Z,26.12
2017-09-26T11:24:34.579Z,26.36
2017-09-26T11:25:34.510Z,26.58
2017-09-26T11:26:34.445Z,26.52
2017-09-26T11:27:34.378Z,26.32
2017-09-26T11:28:34.311Z,25.86
2017-09-26T11:29:34.250Z,25.75
2017-09-26T11:30:34.182Z,26.01
2017-09-26T11:31:34.117Z,26.24
2017-09-26T11:32:34.053Z,26.42
2017-09-26T11:33:33.981Z,26.50
2017-09-26T11:34:33.921Z,26.74
2017-09-26T11:35:33.851Z,26.68
2017-09-26T11:36:33.778Z,26.73
2017-09-26T11:37:33.713Z,26.91
2017-09-26T11:38:33.651Z,26.89
2017-09-26T11:39:33.585Z,26.99
2017-09-26T11:40:33.508Z,27.02
2017-09-26T11:41:33.444Z,26.84
2017-09-26T11:42:33.371Z,26.57
2017-09-26T11:43:33.302Z,26.52
2017-09-26T11:44:33.245Z,26.36
2017-09-26T11:45:33.163Z,26.74
2017-09-26T11:46:33.094Z,26.69
2017-09-26T11:47:33.024Z,26.62
2017-09-26T11:48:32.947Z,26.84
2017-09-26T11:49:32.880Z,26.64
2017-09-26T11:50:32.816Z,26.54
2017-09-26T11:51:32.732Z,26.62
2017-09-26T11:52:32.669Z,26.55
2017-09-26T11:53:32.590Z,26.49
2017-09-26T11:54:32.527Z,26.67
2017-09-26T11:55:32.450Z,26.58
2017-09-26T11:56:32.384Z,26.79
2017-09-26T11:57:32.307Z,26.83
2017-09-26T11:58:32.237Z,26.91
2017-09-26T11:59:32.165Z,26.84
2017-09-26T12:00:32.093Z,26.58
2017-09-26T12:01:32.022Z,26.49
2017-09-26T12:02:31.951Z,26.40
2017-09-26T12:03:31.876Z,26.28
2017-09-26T12:04:31.806Z,26.17
2017-09-26T12:05:31.730Z,25.98
2017-09-26T12:06:31.662Z,25.89
2017-09-26T12:07:31.589Z,25.89
2017-09-26T12:08:31.514Z,26.04
2017-09-26T12:09:31.453Z,26.17
2017-09-26T12:10:31.377Z,26.20
2017-09-26T12:11:31.329Z,26.11
2017-09-26T12:12:31.228Z,25.83
2017-09-26T12:13:31.161Z,25.91
2017-09-26T12:14:31.824Z,26.04
2017-09-26T12:15:31.017Z,26.15
2017-09-26T12:16:30.939Z,25.99
2017-09-26T12:17:30.870Z,26.04
2017-09-26T12:18:30.795Z,26.17
2017-09-26T12:19:30.723Z,26.21
2017-09-26T12:20:30.659Z,26.36
2017-09-26T12:21:30.582Z,26.39
2017-09-26T12:22:30.522Z,26.32
2017-09-26T12:23:30.430Z,26.12
2017-09-26T12:24:30.366Z,26.25
2017-09-26T12:25:30.303Z,26.25
2017-09-26T12:26:30.214Z,26.27
2017-09-26T12:27:30.139Z,26.20
2017-09-26T12:28:30.067Z,26.09
2017-09-26T12:29:30.001Z,26.12
2017-09-26T12:30:29.926Z,26.04
2017-09-26T12:31:29.851Z,26.05
2017-09-26T12:32:29.785Z,26.15
2017-09-26T12:33:29.706Z,25.80
2017-09-26T12:34:29.631Z,25.83
2017-09-26T12:35:29.561Z,26.01
2017-09-26T12:36:29.488Z,25.98
2017-09-26T12:37:29.416Z,26.02
2017-09-26T12:38:29.344Z,25.61
2017-09-26T12:39:29.267Z,25.54
2017-09-26T12:40:29.199Z,25.38
2017-09-26T12:41:29.123Z,25.31
2017-09-26T12:42:29.053Z,25.32
2017-09-26T12:43:28.979Z,25.30
2017-09-26T12:44:28.903Z,25.42
2017-09-26T12:45:28.830Z,25.34
2017-09-26T12:46:28.758Z,25.22
2017-09-26T12:47:28.687Z,25.34
2017-09-26T12:48:28.613Z,25.17
2017-09-26T12:49:28.535Z,25.16
2017-09-26T12:50:28.463Z,25.07
2017-09-26T12:51:28.390Z,25.02